This is the latest recevied weather packets stored in our database for station/object SP4FDH-13. If no packets are shown the sender has not sent any weather packets the latest 10 day(s).
| Time | Temp. | Humidity | Pressure | Rain* | Wind** | Luminosity | Snow |
|---|---|---|---|---|---|---|---|
| 1777670043 | 11.11° C | 10% | - | - | - | - | - |
| 1777669468 | 11.11° C | 10% | - | - | - | - | - |
| 1777668893 | 11.67° C | 10% | - | - | - | - | - |
| 1777668318 | 11.67° C | 10% | - | - | - | - | - |
| 1777667743 | 12.22° C | 99% | 1023.3 hPa | - | - | - | - |
| 1777667168 | 12.22° C | 99% | 1023.3 hPa | - | - | - | - |
| 1777666593 | 12.22° C | 10% | - | - | - | - | - |
| 1777666018 | 13.33° C | 96% | 1023.2 hPa | - | - | - | - |
| 1777665443 | 13.89° C | 92% | 1023.1 hPa | - | - | - | - |
| 1777664869 | 13.89° C | 92% | 1023.4 hPa | - | - | - | - |
| 1777664294 | 13.89° C | 91% | 1023.3 hPa | - | - | - | - |
| 1777663720 | 14.44° C | 87% | 1023.1 hPa | - | - | - | - |
| 1777663147 | 15.56° C | 78% | 1023 hPa | - | - | - | - |
| 1777662572 | 15.56° C | 76% | 1023.1 hPa | - | - | - | - |
| 1777661998 | 16.67° C | 67% | 1023 hPa | - | - | - | - |
| 1777661423 | 17.22° C | 59% | 1022.8 hPa | - | - | - | - |
| 1777660849 | 17.78° C | 57% | 1022.7 hPa | - | - | - | - |
| 1777660274 | 17.78° C | 56% | 1022.8 hPa | - | - | - | - |
| 1777659699 | 18.33° C | 55% | 1022.7 hPa | - | - | - | - |
| 1777659126 | 18.33° C | 54% | 1022.5 hPa | - | - | - | - |
| 1777658551 | 18.89° C | 52% | 1022.5 hPa | - | - | - | - |
| 1777657977 | 19.44° C | 50% | 1022.4 hPa | - | - | - | - |
| 1777657402 | 19.44° C | 49% | 1022.3 hPa | - | - | - | - |
| 1777656827 | 20° C | 50% | 1022.4 hPa | - | - | - | - |
| 1777656252 | 20° C | 50% | 1022.3 hPa | - | - | - | - |
* Rain since midnight (hover to see other rain measurements)
** Current wind speed in m/s (hover to see current wind gust speed)